sensor_id;sensor_type;location;lat;lon;timestamp;P1;durP1;ratioP1;P2;durP2;ratioP2
4597;SDS011;62772;48.646;8.906;2023-12-07T00:04:56;20.47;;;11.60;;
4597;SDS011;62772;48.646;8.906;2023-12-07T00:09:57;22.17;;;12.40;;
4597;SDS011;62772;48.646;8.906;2023-12-07T00:14:57;23.73;;;12.17;;
4597;SDS011;62772;48.646;8.906;2023-12-07T00:19:58;17.27;;;10.20;;
4597;SDS011;62772;48.646;8.906;2023-12-07T00:24:58;18.93;;;10.10;;
4597;SDS011;62772;48.646;8.906;2023-12-07T00:29:58;15.70;;;10.00;;
4597;SDS011;62772;48.646;8.906;2023-12-07T00:34:59;20.43;;;10.83;;
4597;SDS011;62772;48.646;8.906;2023-12-07T00:39:59;20.03;;;10.37;;
4597;SDS011;62772;48.646;8.906;2023-12-07T00:45:01;21.40;;;11.07;;
4597;SDS011;62772;48.646;8.906;2023-12-07T00:50:01;18.07;;;9.57;;
4597;SDS011;62772;48.646;8.906;2023-12-07T00:55:02;14.57;;;8.80;;
4597;SDS011;62772;48.646;8.906;2023-12-07T01:00:02;17.70;;;10.20;;
4597;SDS011;62772;48.646;8.906;2023-12-07T01:05:04;17.33;;;9.27;;
4597;SDS011;62772;48.646;8.906;2023-12-07T01:10:06;16.37;;;9.13;;
4597;SDS011;62772;48.646;8.906;2023-12-07T01:15:06;15.13;;;9.43;;
4597;SDS011;62772;48.646;8.906;2023-12-07T01:20:07;17.87;;;11.00;;
4597;SDS011;62772;48.646;8.906;2023-12-07T01:25:12;20.27;;;11.47;;
4597;SDS011;62772;48.646;8.906;2023-12-07T01:30:17;20.33;;;12.07;;
4597;SDS011;62772;48.646;8.906;2023-12-07T01:35:17;17.00;;;10.10;;
4597;SDS011;62772;48.646;8.906;2023-12-07T01:40:17;17.33;;;9.47;;
4597;SDS011;62772;48.646;8.906;2023-12-07T01:45:18;16.40;;;9.70;;
4597;SDS011;62772;48.646;8.906;2023-12-07T01:50:20;16.10;;;9.77;;
4597;SDS011;62772;48.646;8.906;2023-12-07T01:55:24;14.37;;;8.20;;
4597;SDS011;62772;48.646;8.906;2023-12-07T02:00:27;14.30;;;8.93;;
4597;SDS011;62772;48.646;8.906;2023-12-07T02:05:28;15.43;;;8.90;;
4597;SDS011;62772;48.646;8.906;2023-12-07T02:10:29;13.53;;;8.67;;
4597;SDS011;62772;48.646;8.906;2023-12-07T02:15:30;13.57;;;8.97;;
4597;SDS011;62772;48.646;8.906;2023-12-07T02:20:32;16.87;;;9.40;;
4597;SDS011;62772;48.646;8.906;2023-12-07T02:25:53;15.27;;;8.83;;
4597;SDS011;62772;48.646;8.906;2023-12-07T02:30:54;15.50;;;9.40;;
4597;SDS011;62772;48.646;8.906;2023-12-07T02:35:55;16.27;;;10.30;;
4597;SDS011;62772;48.646;8.906;2023-12-07T02:40:55;18.03;;;10.47;;
4597;SDS011;62772;48.646;8.906;2023-12-07T02:45:57;19.47;;;11.90;;
4597;SDS011;62772;48.646;8.906;2023-12-07T02:50:58;16.63;;;10.37;;
4597;SDS011;62772;48.646;8.906;2023-12-07T02:55:58;19.87;;;11.17;;
4597;SDS011;62772;48.646;8.906;2023-12-07T03:00:58;21.03;;;12.73;;
4597;SDS011;62772;48.646;8.906;2023-12-07T03:05:59;19.43;;;11.33;;
4597;SDS011;62772;48.646;8.906;2023-12-07T03:10:59;27.03;;;12.03;;
4597;SDS011;62772;48.646;8.906;2023-12-07T03:16:00;22.37;;;11.67;;
4597;SDS011;62772;48.646;8.906;2023-12-07T03:21:01;22.00;;;11.37;;
4597;SDS011;62772;48.646;8.906;2023-12-07T03:26:03;17.67;;;10.90;;
4597;SDS011;62772;48.646;8.906;2023-12-07T03:31:03;21.13;;;11.37;;
4597;SDS011;62772;48.646;8.906;2023-12-07T03:36:05;17.90;;;10.97;;
4597;SDS011;62772;48.646;8.906;2023-12-07T03:41:05;20.27;;;11.17;;
4597;SDS011;62772;48.646;8.906;2023-12-07T03:46:06;16.90;;;9.97;;
4597;SDS011;62772;48.646;8.906;2023-12-07T03:51:08;18.43;;;10.27;;
4597;SDS011;62772;48.646;8.906;2023-12-07T03:56:22;16.50;;;9.60;;
4597;SDS011;62772;48.646;8.906;2023-12-07T04:01:23;17.60;;;10.30;;
4597;SDS011;62772;48.646;8.906;2023-12-07T04:06:25;19.27;;;11.30;;
4597;SDS011;62772;48.646;8.906;2023-12-07T04:11:25;21.13;;;11.60;;
4597;SDS011;62772;48.646;8.906;2023-12-07T04:16:26;19.47;;;11.37;;
4597;SDS011;62772;48.646;8.906;2023-12-07T04:21:26;21.17;;;11.57;;
4597;SDS011;62772;48.646;8.906;2023-12-07T04:26:27;31.87;;;16.00;;
4597;SDS011;62772;48.646;8.906;2023-12-07T04:31:27;24.53;;;13.20;;
4597;SDS011;62772;48.646;8.906;2023-12-07T04:36:28;23.30;;;13.30;;
4597;SDS011;62772;48.646;8.906;2023-12-07T04:41:28;27.13;;;12.37;;
4597;SDS011;62772;48.646;8.906;2023-12-07T04:46:29;24.30;;;12.70;;
4597;SDS011;62772;48.646;8.906;2023-12-07T04:51:29;21.73;;;11.70;;
4597;SDS011;62772;48.646;8.906;2023-12-07T04:56:29;28.27;;;13.50;;
4597;SDS011;62772;48.646;8.906;2023-12-07T05:01:30;23.40;;;13.60;;
4597;SDS011;62772;48.646;8.906;2023-12-07T05:06:33;24.33;;;13.00;;
4597;SDS011;62772;48.646;8.906;2023-12-07T05:11:34;24.53;;;14.07;;
4597;SDS011;62772;48.646;8.906;2023-12-07T05:16:36;25.77;;;13.20;;
4597;SDS011;62772;48.646;8.906;2023-12-07T05:21:37;26.77;;;13.53;;
4597;SDS011;62772;48.646;8.906;2023-12-07T05:26:38;24.47;;;13.83;;
4597;SDS011;62772;48.646;8.906;2023-12-07T05:31:39;29.53;;;14.00;;
4597;SDS011;62772;48.646;8.906;2023-12-07T05:36:39;26.50;;;13.53;;
4597;SDS011;62772;48.646;8.906;2023-12-07T05:41:40;28.80;;;12.50;;
4597;SDS011;62772;48.646;8.906;2023-12-07T05:46:40;29.60;;;13.17;;
4597;SDS011;62772;48.646;8.906;2023-12-07T05:51:44;24.67;;;13.53;;
4597;SDS011;62772;48.646;8.906;2023-12-07T05:56:44;43.70;;;13.90;;
4597;SDS011;62772;48.646;8.906;2023-12-07T06:01:45;25.43;;;13.73;;
4597;SDS011;62772;48.646;8.906;2023-12-07T06:06:45;29.37;;;13.70;;
4597;SDS011;62772;48.646;8.906;2023-12-07T06:11:46;30.77;;;15.00;;
4597;SDS011;62772;48.646;8.906;2023-12-07T06:16:46;27.10;;;14.10;;
4597;SDS011;62772;48.646;8.906;2023-12-07T06:21:49;28.43;;;13.50;;
4597;SDS011;62772;48.646;8.906;2023-12-07T06:26:50;25.10;;;12.53;;
4597;SDS011;62772;48.646;8.906;2023-12-07T06:31:52;29.47;;;14.80;;
4597;SDS011;62772;48.646;8.906;2023-12-07T06:36:52;29.37;;;14.23;;
4597;SDS011;62772;48.646;8.906;2023-12-07T06:41:53;28.40;;;13.67;;
4597;SDS011;62772;48.646;8.906;2023-12-07T06:46:55;30.63;;;15.10;;
4597;SDS011;62772;48.646;8.906;2023-12-07T06:51:55;35.13;;;15.17;;
4597;SDS011;62772;48.646;8.906;2023-12-07T06:56:56;32.70;;;15.23;;
4597;SDS011;62772;48.646;8.906;2023-12-07T07:01:56;29.43;;;14.00;;
4597;SDS011;62772;48.646;8.906;2023-12-07T07:06:57;30.50;;;14.93;;
4597;SDS011;62772;48.646;8.906;2023-12-07T07:11:57;31.30;;;15.70;;
4597;SDS011;62772;48.646;8.906;2023-12-07T07:16:58;32.70;;;15.47;;
4597;SDS011;62772;48.646;8.906;2023-12-07T07:21:58;29.23;;;16.50;;
4597;SDS011;62772;48.646;8.906;2023-12-07T07:26:59;30.50;;;15.90;;
4597;SDS011;62772;48.646;8.906;2023-12-07T07:31:59;29.20;;;15.33;;
4597;SDS011;62772;48.646;8.906;2023-12-07T07:37:00;29.33;;;14.27;;
4597;SDS011;62772;48.646;8.906;2023-12-07T07:42:00;31.23;;;15.53;;
4597;SDS011;62772;48.646;8.906;2023-12-07T07:47:01;34.87;;;16.30;;
4597;SDS011;62772;48.646;8.906;2023-12-07T07:52:01;30.40;;;15.00;;
4597;SDS011;62772;48.646;8.906;2023-12-07T07:57:01;33.27;;;16.10;;
4597;SDS011;62772;48.646;8.906;2023-12-07T08:02:02;34.40;;;18.17;;
4597;SDS011;62772;48.646;8.906;2023-12-07T08:07:02;36.90;;;18.60;;
4597;SDS011;62772;48.646;8.906;2023-12-07T08:12:03;35.63;;;18.63;;
4597;SDS011;62772;48.646;8.906;2023-12-07T08:17:05;39.80;;;18.70;;
4597;SDS011;62772;48.646;8.906;2023-12-07T08:22:05;38.07;;;18.43;;
4597;SDS011;62772;48.646;8.906;2023-12-07T08:27:06;35.30;;;18.70;;
4597;SDS011;62772;48.646;8.906;2023-12-07T08:32:06;40.00;;;18.10;;
4597;SDS011;62772;48.646;8.906;2023-12-07T08:37:07;32.33;;;17.33;;
4597;SDS011;62772;48.646;8.906;2023-12-07T08:42:08;36.87;;;18.30;;
4597;SDS011;62772;48.646;8.906;2023-12-07T08:47:08;41.40;;;19.10;;
4597;SDS011;62772;48.646;8.906;2023-12-07T08:52:09;36.40;;;19.10;;
4597;SDS011;62772;48.646;8.906;2023-12-07T08:57:09;36.90;;;18.87;;
4597;SDS011;62772;48.646;8.906;2023-12-07T09:02:09;42.43;;;19.07;;
4597;SDS011;62772;48.646;8.906;2023-12-07T09:07:10;34.00;;;17.67;;
4597;SDS011;62772;48.646;8.906;2023-12-07T09:12:15;39.00;;;19.97;;
4597;SDS011;62772;48.646;8.906;2023-12-07T09:17:16;43.73;;;20.10;;
4597;SDS011;62772;48.646;8.906;2023-12-07T09:22:17;36.60;;;18.03;;
4597;SDS011;62772;48.646;8.906;2023-12-07T09:27:18;31.23;;;17.57;;
4597;SDS011;62772;48.646;8.906;2023-12-07T09:32:19;27.80;;;15.70;;
4597;SDS011;62772;48.646;8.906;2023-12-07T09:37:19;27.80;;;15.97;;
4597;SDS011;62772;48.646;8.906;2023-12-07T09:42:20;33.67;;;15.33;;
4597;SDS011;62772;48.646;8.906;2023-12-07T09:47:21;26.00;;;14.60;;
4597;SDS011;62772;48.646;8.906;2023-12-07T09:52:22;28.57;;;16.60;;
4597;SDS011;62772;48.646;8.906;2023-12-07T09:57:24;26.20;;;14.43;;
4597;SDS011;62772;48.646;8.906;2023-12-07T10:02:24;27.77;;;15.30;;
4597;SDS011;62772;48.646;8.906;2023-12-07T10:07:32;30.10;;;14.60;;
4597;SDS011;62772;48.646;8.906;2023-12-07T10:12:43;25.50;;;13.90;;
4597;SDS011;62772;48.646;8.906;2023-12-07T10:23:01;24.20;;;13.47;;
4597;SDS011;62772;48.646;8.906;2023-12-07T10:28:09;22.50;;;13.27;;
4597;SDS011;62772;48.646;8.906;2023-12-07T10:33:13;30.77;;;15.23;;
4597;SDS011;62772;48.646;8.906;2023-12-07T10:38:14;23.57;;;13.30;;
4597;SDS011;62772;48.646;8.906;2023-12-07T10:43:14;22.67;;;12.37;;
4597;SDS011;62772;48.646;8.906;2023-12-07T10:48:16;21.17;;;12.03;;
4597;SDS011;62772;48.646;8.906;2023-12-07T10:53:21;20.37;;;11.27;;
4597;SDS011;62772;48.646;8.906;2023-12-07T10:58:27;20.07;;;10.57;;
4597;SDS011;62772;48.646;8.906;2023-12-07T11:03:28;21.90;;;11.10;;
4597;SDS011;62772;48.646;8.906;2023-12-07T11:08:36;19.00;;;10.83;;
4597;SDS011;62772;48.646;8.906;2023-12-07T11:13:45;21.97;;;12.10;;
4597;SDS011;62772;48.646;8.906;2023-12-07T11:19:00;23.63;;;12.67;;
4597;SDS011;62772;48.646;8.906;2023-12-07T11:24:00;20.70;;;10.30;;
4597;SDS011;62772;48.646;8.906;2023-12-07T11:29:02;21.90;;;10.50;;
4597;SDS011;62772;48.646;8.906;2023-12-07T11:34:06;17.17;;;9.90;;
4597;SDS011;62772;48.646;8.906;2023-12-07T11:44:09;22.23;;;10.13;;
4597;SDS011;62772;48.646;8.906;2023-12-07T11:49:10;17.43;;;10.03;;
4597;SDS011;62772;48.646;8.906;2023-12-07T11:54:12;15.63;;;7.87;;
4597;SDS011;62772;48.646;8.906;2023-12-07T11:59:15;15.90;;;9.47;;
4597;SDS011;62772;48.646;8.906;2023-12-07T12:04:16;21.70;;;10.83;;
4597;SDS011;62772;48.646;8.906;2023-12-07T12:09:17;16.23;;;10.00;;
4597;SDS011;62772;48.646;8.906;2023-12-07T12:14:20;16.57;;;10.07;;
4597;SDS011;62772;48.646;8.906;2023-12-07T12:19:22;18.83;;;9.77;;
4597;SDS011;62772;48.646;8.906;2023-12-07T12:24:24;13.00;;;7.73;;
4597;SDS011;62772;48.646;8.906;2023-12-07T12:29:25;9.30;;;6.37;;
4597;SDS011;62772;48.646;8.906;2023-12-07T12:34:26;7.70;;;5.07;;
4597;SDS011;62772;48.646;8.906;2023-12-07T12:39:27;12.17;;;4.90;;
4597;SDS011;62772;48.646;8.906;2023-12-07T12:44:30;8.63;;;4.90;;
4597;SDS011;62772;48.646;8.906;2023-12-07T12:49:34;7.27;;;4.80;;
4597;SDS011;62772;48.646;8.906;2023-12-07T12:54:36;8.43;;;4.60;;
4597;SDS011;62772;48.646;8.906;2023-12-07T12:59:36;7.43;;;4.50;;
4597;SDS011;62772;48.646;8.906;2023-12-07T13:04:37;7.83;;;4.70;;
4597;SDS011;62772;48.646;8.906;2023-12-07T13:09:38;9.03;;;5.50;;
4597;SDS011;62772;48.646;8.906;2023-12-07T13:14:39;8.90;;;5.10;;
4597;SDS011;62772;48.646;8.906;2023-12-07T13:19:40;8.43;;;5.00;;
4597;SDS011;62772;48.646;8.906;2023-12-07T13:24:40;9.23;;;5.07;;
4597;SDS011;62772;48.646;8.906;2023-12-07T13:29:41;8.90;;;5.63;;
4597;SDS011;62772;48.646;8.906;2023-12-07T13:34:41;8.30;;;5.40;;
4597;SDS011;62772;48.646;8.906;2023-12-07T13:39:43;12.37;;;6.27;;
4597;SDS011;62772;48.646;8.906;2023-12-07T13:44:43;11.60;;;6.20;;
4597;SDS011;62772;48.646;8.906;2023-12-07T13:49:44;15.03;;;7.70;;
4597;SDS011;62772;48.646;8.906;2023-12-07T13:54:45;13.80;;;7.33;;
4597;SDS011;62772;48.646;8.906;2023-12-07T13:59:45;10.20;;;6.33;;
4597;SDS011;62772;48.646;8.906;2023-12-07T14:04:46;12.50;;;7.80;;
4597;SDS011;62772;48.646;8.906;2023-12-07T14:09:50;10.40;;;6.93;;
4597;SDS011;62772;48.646;8.906;2023-12-07T14:14:52;13.13;;;7.77;;
4597;SDS011;62772;48.646;8.906;2023-12-07T14:19:55;24.03;;;14.00;;
4597;SDS011;62772;48.646;8.906;2023-12-07T14:24:55;14.00;;;8.67;;
4597;SDS011;62772;48.646;8.906;2023-12-07T14:29:55;19.13;;;10.30;;
4597;SDS011;62772;48.646;8.906;2023-12-07T14:34:56;24.93;;;12.17;;
4597;SDS011;62772;48.646;8.906;2023-12-07T14:39:56;26.83;;;13.13;;
4597;SDS011;62772;48.646;8.906;2023-12-07T14:44:57;55.10;;;26.57;;
4597;SDS011;62772;48.646;8.906;2023-12-07T14:49:57;38.80;;;19.10;;
4597;SDS011;62772;48.646;8.906;2023-12-07T14:54:57;14.67;;;7.43;;
4597;SDS011;62772;48.646;8.906;2023-12-07T14:59:58;9.80;;;5.70;;
4597;SDS011;62772;48.646;8.906;2023-12-07T15:04:58;9.37;;;5.00;;
4597;SDS011;62772;48.646;8.906;2023-12-07T15:09:59;7.30;;;4.83;;
4597;SDS011;62772;48.646;8.906;2023-12-07T15:14:59;10.00;;;5.00;;
4597;SDS011;62772;48.646;8.906;2023-12-07T15:19:59;7.80;;;4.67;;
4597;SDS011;62772;48.646;8.906;2023-12-07T15:25:00;9.60;;;5.43;;
4597;SDS011;62772;48.646;8.906;2023-12-07T15:30:00;10.90;;;6.10;;
4597;SDS011;62772;48.646;8.906;2023-12-07T15:35:01;8.90;;;5.50;;
4597;SDS011;62772;48.646;8.906;2023-12-07T15:40:01;9.80;;;6.23;;
4597;SDS011;62772;48.646;8.906;2023-12-07T15:45:07;13.83;;;6.27;;
4597;SDS011;62772;48.646;8.906;2023-12-07T15:50:08;11.07;;;6.60;;
4597;SDS011;62772;48.646;8.906;2023-12-07T15:55:11;9.67;;;6.37;;
4597;SDS011;62772;48.646;8.906;2023-12-07T16:00:11;10.60;;;5.43;;
4597;SDS011;62772;48.646;8.906;2023-12-07T16:05:12;6.40;;;4.43;;
4597;SDS011;62772;48.646;8.906;2023-12-07T16:10:13;6.87;;;4.90;;
4597;SDS011;62772;48.646;8.906;2023-12-07T16:15:13;8.47;;;5.00;;
4597;SDS011;62772;48.646;8.906;2023-12-07T16:20:15;9.07;;;5.73;;
4597;SDS011;62772;48.646;8.906;2023-12-07T16:25:16;20.30;;;10.00;;
4597;SDS011;62772;48.646;8.906;2023-12-07T16:30:16;23.43;;;10.87;;
4597;SDS011;62772;48.646;8.906;2023-12-07T16:35:18;31.20;;;13.83;;
4597;SDS011;62772;48.646;8.906;2023-12-07T16:40:18;25.93;;;13.23;;
4597;SDS011;62772;48.646;8.906;2023-12-07T16:45:19;19.67;;;9.20;;
4597;SDS011;62772;48.646;8.906;2023-12-07T16:50:20;18.00;;;9.80;;
4597;SDS011;62772;48.646;8.906;2023-12-07T16:55:21;14.70;;;8.33;;
4597;SDS011;62772;48.646;8.906;2023-12-07T17:00:22;16.17;;;9.20;;
4597;SDS011;62772;48.646;8.906;2023-12-07T17:05:24;19.43;;;8.80;;
4597;SDS011;62772;48.646;8.906;2023-12-07T17:10:25;21.37;;;11.10;;
4597;SDS011;62772;48.646;8.906;2023-12-07T17:15:25;19.97;;;10.10;;
4597;SDS011;62772;48.646;8.906;2023-12-07T17:20:25;18.80;;;9.87;;
4597;SDS011;62772;48.646;8.906;2023-12-07T17:25:26;18.93;;;10.53;;
4597;SDS011;62772;48.646;8.906;2023-12-07T17:30:26;20.03;;;11.10;;
4597;SDS011;62772;48.646;8.906;2023-12-07T17:35:27;18.97;;;10.90;;
4597;SDS011;62772;48.646;8.906;2023-12-07T17:40:27;18.70;;;9.70;;
4597;SDS011;62772;48.646;8.906;2023-12-07T17:45:28;15.97;;;9.43;;
4597;SDS011;62772;48.646;8.906;2023-12-07T17:50:28;22.80;;;9.03;;
4597;SDS011;62772;48.646;8.906;2023-12-07T17:55:28;20.40;;;11.03;;
4597;SDS011;62772;48.646;8.906;2023-12-07T18:00:29;19.20;;;10.70;;
4597;SDS011;62772;48.646;8.906;2023-12-07T18:05:29;16.90;;;10.10;;
4597;SDS011;62772;48.646;8.906;2023-12-07T18:10:30;19.00;;;11.50;;
4597;SDS011;62772;48.646;8.906;2023-12-07T18:15:31;18.30;;;9.50;;
4597;SDS011;62772;48.646;8.906;2023-12-07T18:20:31;22.33;;;12.70;;
4597;SDS011;62772;48.646;8.906;2023-12-07T18:25:32;24.77;;;13.30;;
4597;SDS011;62772;48.646;8.906;2023-12-07T18:30:32;23.33;;;13.30;;
4597;SDS011;62772;48.646;8.906;2023-12-07T18:35:33;26.20;;;13.07;;
4597;SDS011;62772;48.646;8.906;2023-12-07T18:40:33;30.03;;;15.87;;
4597;SDS011;62772;48.646;8.906;2023-12-07T18:45:35;31.20;;;15.00;;
4597;SDS011;62772;48.646;8.906;2023-12-07T18:50:37;32.13;;;16.20;;
4597;SDS011;62772;48.646;8.906;2023-12-07T18:55:53;28.02;;;14.85;;
4597;SDS011;62772;48.646;8.906;2023-12-07T19:00:57;21.47;;;11.90;;
4597;SDS011;62772;48.646;8.906;2023-12-07T19:05:57;18.77;;;11.20;;
4597;SDS011;62772;48.646;8.906;2023-12-07T19:10:59;21.80;;;11.33;;
4597;SDS011;62772;48.646;8.906;2023-12-07T19:15:59;21.83;;;12.30;;
4597;SDS011;62772;48.646;8.906;2023-12-07T19:20:59;22.57;;;11.40;;
4597;SDS011;62772;48.646;8.906;2023-12-07T19:26:00;23.53;;;12.33;;
4597;SDS011;62772;48.646;8.906;2023-12-07T19:31:01;28.17;;;11.97;;
4597;SDS011;62772;48.646;8.906;2023-12-07T19:36:02;24.57;;;12.37;;
4597;SDS011;62772;48.646;8.906;2023-12-07T19:41:02;25.37;;;12.13;;
4597;SDS011;62772;48.646;8.906;2023-12-07T19:46:03;23.10;;;12.83;;
4597;SDS011;62772;48.646;8.906;2023-12-07T19:51:04;25.60;;;13.07;;
4597;SDS011;62772;48.646;8.906;2023-12-07T19:56:05;25.10;;;13.20;;
4597;SDS011;62772;48.646;8.906;2023-12-07T20:01:05;25.27;;;13.97;;
4597;SDS011;62772;48.646;8.906;2023-12-07T20:06:09;27.90;;;15.97;;
4597;SDS011;62772;48.646;8.906;2023-12-07T20:11:15;25.20;;;13.90;;
4597;SDS011;62772;48.646;8.906;2023-12-07T20:16:17;32.67;;;16.70;;
4597;SDS011;62772;48.646;8.906;2023-12-07T20:21:18;33.30;;;16.63;;
4597;SDS011;62772;48.646;8.906;2023-12-07T20:26:19;29.77;;;16.40;;
4597;SDS011;62772;48.646;8.906;2023-12-07T20:31:20;26.00;;;14.60;;
4597;SDS011;62772;48.646;8.906;2023-12-07T20:36:21;36.37;;;18.67;;
4597;SDS011;62772;48.646;8.906;2023-12-07T20:41:21;35.50;;;18.10;;
4597;SDS011;62772;48.646;8.906;2023-12-07T20:46:22;30.47;;;15.80;;
4597;SDS011;62772;48.646;8.906;2023-12-07T20:51:22;29.73;;;15.63;;
4597;SDS011;62772;48.646;8.906;2023-12-07T20:56:23;30.70;;;16.33;;
4597;SDS011;62772;48.646;8.906;2023-12-07T21:01:24;26.87;;;14.87;;
4597;SDS011;62772;48.646;8.906;2023-12-07T21:06:24;31.43;;;16.67;;
4597;SDS011;62772;48.646;8.906;2023-12-07T21:11:24;34.97;;;18.40;;
4597;SDS011;62772;48.646;8.906;2023-12-07T21:16:25;29.17;;;16.93;;
4597;SDS011;62772;48.646;8.906;2023-12-07T21:21:26;28.60;;;16.47;;
4597;SDS011;62772;48.646;8.906;2023-12-07T21:26:26;30.90;;;18.00;;
4597;SDS011;62772;48.646;8.906;2023-12-07T21:31:27;32.70;;;18.20;;
4597;SDS011;62772;48.646;8.906;2023-12-07T21:36:28;26.47;;;15.50;;
4597;SDS011;62772;48.646;8.906;2023-12-07T21:41:28;27.33;;;14.30;;
4597;SDS011;62772;48.646;8.906;2023-12-07T21:46:29;49.17;;;23.80;;
4597;SDS011;62772;48.646;8.906;2023-12-07T21:51:30;34.90;;;19.40;;
4597;SDS011;62772;48.646;8.906;2023-12-07T21:56:30;31.47;;;17.50;;
4597;SDS011;62772;48.646;8.906;2023-12-07T22:01:31;31.90;;;16.93;;
4597;SDS011;62772;48.646;8.906;2023-12-07T22:06:31;30.43;;;14.97;;
4597;SDS011;62772;48.646;8.906;2023-12-07T22:11:32;25.77;;;13.60;;
4597;SDS011;62772;48.646;8.906;2023-12-07T22:16:32;24.03;;;13.70;;
4597;SDS011;62772;48.646;8.906;2023-12-07T22:21:33;23.53;;;13.80;;
4597;SDS011;62772;48.646;8.906;2023-12-07T22:26:33;34.47;;;19.20;;
4597;SDS011;62772;48.646;8.906;2023-12-07T22:31:34;30.80;;;17.80;;
4597;SDS011;62772;48.646;8.906;2023-12-07T22:36:35;39.20;;;19.20;;
4597;SDS011;62772;48.646;8.906;2023-12-07T22:41:35;34.73;;;17.53;;
4597;SDS011;62772;48.646;8.906;2023-12-07T22:46:35;39.97;;;18.80;;
4597;SDS011;62772;48.646;8.906;2023-12-07T22:51:36;32.10;;;16.83;;
4597;SDS011;62772;48.646;8.906;2023-12-07T22:56:36;29.00;;;15.40;;
4597;SDS011;62772;48.646;8.906;2023-12-07T23:01:37;29.33;;;16.87;;
4597;SDS011;62772;48.646;8.906;2023-12-07T23:06:37;32.50;;;18.00;;
4597;SDS011;62772;48.646;8.906;2023-12-07T23:11:38;31.07;;;17.63;;
4597;SDS011;62772;48.646;8.906;2023-12-07T23:16:39;30.47;;;15.63;;
4597;SDS011;62772;48.646;8.906;2023-12-07T23:21:39;28.03;;;16.53;;
4597;SDS011;62772;48.646;8.906;2023-12-07T23:26:44;28.07;;;15.20;;
4597;SDS011;62772;48.646;8.906;2023-12-07T23:31:44;28.40;;;15.57;;
4597;SDS011;62772;48.646;8.906;2023-12-07T23:36:45;23.83;;;13.70;;
4597;SDS011;62772;48.646;8.906;2023-12-07T23:41:46;38.43;;;15.10;;
4597;SDS011;62772;48.646;8.906;2023-12-07T23:46:47;27.43;;;15.30;;
4597;SDS011;62772;48.646;8.906;2023-12-07T23:51:48;25.93;;;14.43;;
4597;SDS011;62772;48.646;8.906;2023-12-07T23:56:49;27.80;;;15.70;;
